• Join FlightAware (Why Join?)
  • Login
  • US Flag 
09:19PM EST


 

Airport Tracker/Info


-or-


 

Live Flight TrackerFlight Track Log ✈ N960DL ✈ 21-Jun-2013 ✈ KATL - KBWI

Flight Track Log - Related Links

Times and Time Zones

All times are in EDT time to prevent confusion due to time zone crossing. See the N960DL flight status page for this flight to view local times or setup timezone preferences in your user account.

Time Position Orientation Groundspeed Altitude Reporting Facility
EDT Latitude Longitude Course Direction KTS MPH feet Rate Location/Type
11:13PM 33.6333 -84.3833 53° Northeast 170 196 2,600  Level Atlanta TRACON
11:14PM 33.6333 -84.3167 90° East 242 278 4,600 2,340 Climbing Atlanta TRACON
11:15PM 33.8676 -84.1377 54° Northeast  Level Estimated
11:15PM 33.6167 -84.2333 103° East 269 310 7,300  Level Atlanta TRACON
11:16PM 33.8674 -84.0036 90° East  Level FlightAware Approximate
11:17PM 33.8670 -83.8695 90° East  Level FlightAware Approximate
11:17PM 33.6858 -84.0514 65° Northeast 287 330 10,200  Level Atlanta Center
11:18PM 33.9452 -83.7740 53° Northeast  Level Estimated
11:18PM 33.7525 -83.9564 50° Northeast 329 379 12,200  Level Atlanta Center
11:19PM 33.8275 -83.8564 48° Northeast 374 430 14,800 2,520 Climbing Atlanta Center
11:20PM 33.9003 -83.7561 49° Northeast 393 452 17,300 2,100 Climbing Atlanta Center
11:21PM 33.9753 -83.6431 51° Northeast 409 471 19,100 1,800 Climbing Atlanta Center
11:22PM 34.0478 -83.5247 53° Northeast 430 495 21,000 1,800 Climbing Atlanta Center
11:23PM 34.1225 -83.4039 53° Northeast 443 510 22,800 1,440 Climbing Atlanta Center
11:24PM 34.1989 -83.2828 53° Northeast 451 519 23,900 1,440 Climbing Atlanta Center
11:25PM 34.2753 -83.1589 53° Northeast 451 519 25,700 1,740 Climbing Atlanta Center
11:26PM 34.3597 -83.0247 53° Northeast 458 527 27,400 1,560 Climbing Atlanta Center
11:27PM 34.4381 -82.9003 53° Northeast 458 527 28,900 1,320 Climbing Atlanta Center
11:28PM 34.5161 -82.7733 53° Northeast 458 527 30,100 1,200 Climbing Atlanta Center
11:29PM 34.5897 -82.6458 55° Northeast 463 533 31,300 1,260 Climbing Atlanta Center
11:30PM 34.6719 -82.5258 50° Northeast 457 526 32,700 960 Climbing Atlanta Center
11:31PM 34.7475 -82.4006 54° Northeast 457 526 33,300 600 Climbing Atlanta Center
11:32PM 34.8250 -82.2725 54° Northeast 457 526 34,000 780 Climbing Atlanta Center
11:33PM 34.9025 -82.1444 54° Northeast 462 532 34,900 480 Climbing Atlanta Center
11:34PM 34.9736 -82.0311 53° Northeast 456 525 35,000  Climbing Atlanta Center
11:35PM 35.0528 -81.8922 55° Northeast 467 537 35,000  Level Atlanta Center
11:36PM 35.1253 -81.7558 57° Northeast 462 532 35,000  Level Atlanta Center
11:37PM 35.1917 -81.6269 58° Northeast 462 532 35,000  Level Atlanta Center
11:38PM 35.2600 -81.4928 58° Northeast 463 533 35,000  Level Atlanta Center
11:39PM 35.3303 -81.3631 56° Northeast 458 527 35,000  Level Atlanta Center
11:40PM 35.3961 -81.2286 59° Northeast 458 527 35,000  Level Atlanta Center
11:41PM 35.4658 -81.0911 58° Northeast 464 534 35,000  Level Atlanta Center
11:42PM 35.5356 -80.9583 57° Northeast 459 528 35,000  Level Atlanta Center
11:43PM 35.6053 -80.8306 56° Northeast 454 522 35,000  Level Atlanta Center
11:44PM 35.6750 -80.7000 57° Northeast 449 517 35,000  Level Atlanta Center
11:45PM 35.7422 -80.5669 58° Northeast 449 517 35,000  Level Atlanta Center
11:48PM 35.9025 -80.2539 58° Northeast 450 518 35,000  Level Washington Center
11:49PM 35.9681 -80.1217 58° Northeast 450 518 35,000  Level Washington Center
11:50PM 36.0286 -80.0097 56° Northeast 445 512 35,000  Level Washington Center
11:51PM 36.1000 -79.8825 55° Northeast 440 506 35,000  Level Washington Center
11:52PM 36.1714 -79.7525 56° Northeast 455 524 35,000  Level Washington Center
11:53PM 36.2514 -79.6100 55° Northeast 449 517 35,000  Level Washington Center
11:54PM 36.3156 -79.4947 55° Northeast 449 517 35,000  Level Washington Center
11:55PM 36.4419 -79.2608 56° Northeast 449 517 35,000  Level Washington Center
11:56PM 36.5167 -79.1353 53° Northeast 449 517 35,000 -900 Level Washington Center
11:57PM 36.5981 -78.9967 54° Northeast 449 517 33,200 -2,280 Descending Washington Center
11:58PM 36.6664 -78.8650 57° Northeast 449 517 30,400 -2,160 Descending Washington Center
11:59PM 36.7406 -78.7386 54° Northeast 455 524 29,000 -720 Descending Washington Center
12:00AM 36.8150 -78.6067 55° Northeast 455 524 29,000  Level Washington Center
12:01AM 36.9069 -78.5142 39° Northeast 460 529 29,000  Level Washington Center
12:02AM 37.0094 -78.4192 36° Northeast 455 524 29,000  Level Washington Center
12:03AM 37.1158 -78.3242 35° Northeast 460 529 29,000  Level Washington Center
12:04AM 37.2308 -78.2186 36° Northeast 460 529 29,000  Level Washington Center
12:05AM 37.3225 -78.1356 36° Northeast 454 522 29,000  Level Washington Center
12:06AM 37.4247 -78.0369 37° Northeast 449 517 29,000  Level Washington Center
12:07AM 37.5286 -77.9433 36° Northeast 449 517 29,000 -1,500 Level Washington Center
12:08AM 37.6306 -77.8469 37° Northeast 454 522 26,100 -2,880 Descending Washington Center
12:09AM 37.7325 -77.7503 37° Northeast 454 522 23,500 -2,700 Descending Washington Center
12:10AM 37.8300 -77.6583 37° Northeast 454 522 20,700 -2,040 Descending Washington Center
12:11AM 37.9275 -77.5661 37° Northeast 443 510 19,400 -1,140 Descending Washington Center
12:12AM 38.0250 -77.4764 36° Northeast 438 504 18,500 -780 Descending Washington Center
12:13AM 38.1158 -77.3944 35° Northeast 424 488 17,900 -1,260 Descending Washington Center
12:14AM 38.2047 -77.3092 37° Northeast 414 476 16,100 -1,440 Descending Washington Center
12:15AM 38.2956 -77.2242 36° Northeast 409 471 15,000 -660 Descending Washington Center
12:16AM 38.3906 -77.1308 38° Northeast 403 464 14,800 -1,020 Descending Washington Center
12:17AM 38.4689 -77.0369 43° Northeast 390 449 13,100 -1,620 Descending Washington Center
12:18AM 38.5408 -76.9533 42° Northeast 373 429 11,600 -1,320 Descending Washington Center
12:19AM 38.6064 -76.8722 44° Northeast 345 397 10,500 -1,020 Descending Washington Center
12:20AM 38.6697 -76.7961 43° Northeast 319 367 9,600 -960 Descending Washington Center
12:21AM 38.7225 -76.7144 50° Northeast 303 349 8,600 -1,200 Descending Washington Center
12:22AM 38.7836 -76.6569 36° Northeast 269 310 7,200 -1,320 Descending Washington Center
12:24AM 38.9333 -76.7167 343° North 296 341 4,800 -1,200 Descending Potomac TRACON
12:25AM 39.0000 -76.7500 339° North 274 315 3,800 -1,020 Descending Potomac TRACON
12:26AM 39.0667 -76.7667 349° North 248 285 2,900 -960 Descending Potomac TRACON
12:27AM 39.1333 -76.8000 339° North 222 255 2,000 -720 Descending Potomac TRACON
12:28AM 39.1833 -76.7833 14° North 188 216 1,500 -600 Descending Potomac TRACON
12:29AM 39.1833 -76.7167 90° East 154 177 700 -780 Descending Potomac TRACON
12:31AM 39.1667 -76.6667 100° East  Level FlightAware Approximate
12:38AM 39.1754 -76.6683 100° East  Level Estimated
12:39AM 39.1754 -76.6683 100° East  Level Estimated
12:40AM 39.1754 -76.6683 100° East  Level Estimated
12:41AM 39.1754 -76.6683 100° East  Level Estimated